map of KRT home
Great Circle Mapper logo
KRT - Airport
Location
City:  Khartoum, Sudan
ICAO / IATA:HSSS / KRT

Details
Type:Airport (Aerodrome, Airfield)
Use:Public/Civil, Military, International (customs port of entry)
Latitude:1535'22"N (15.589497)
Longitude:3233'11"E (32.553161)
Datum:WGS 1984
Elevation:1265 ft (386 m)
Runways:1
Longest:9777 × 148 ft (2980 × 45 m), paved

Time
Time Zone:UTC+3
Local Time:

Weather
METAR:HSSS 231500Z 27004KT 6000M HZ 39/09 Q1007 NOSIG
TAF:HSSS 231000Z 2312/2418 21012G22KT 4000 BLSA PROB30
TEMPO 2315/2318 1500 DS

Related Locations
Nearby:
Farthest:KKR: 12412 mi / 19975 km
Kaukura Atoll, PF

Find:

   beyond  
but within

Other Information
Maps:
NOTAMs:
Links:
Sources:

  
flag of Sudan   

Sectional Chart

Flight Planning
at skyvector.com

Satellite Image

Google Maps Satellite View

 

Copyright © 2004-2014 Karl L. Swartz. All rights reserved.
The Great Circle Mapper name and logo are trademarks of the Great Circle Mapper.
All other trademarks mentioned herein belong to their respective owners.
Please see credits for attibutions and further copyright information.

  Follow gcmap on Facebook Follow gcmap on Twitter

hCard Microformat

Geo Microformat